createdAt,value
2022-10-16T00:04:20.551Z,6.53
2022-10-16T00:09:27.335Z,6.38
2022-10-16T00:14:35.018Z,5.30
2022-10-16T00:19:41.088Z,5.78
2022-10-16T00:25:06.589Z,4.78
2022-10-16T00:30:14.301Z,4.72
2022-10-16T00:35:20.266Z,4.90
2022-10-16T00:40:26.810Z,4.28
2022-10-16T00:45:34.777Z,4.80
2022-10-16T00:50:44.581Z,4.55
2022-10-16T00:55:50.530Z,4.50
2022-10-16T01:01:02.877Z,5.57
2022-10-16T01:06:26.214Z,4.82
2022-10-16T01:11:41.206Z,4.85
2022-10-16T01:16:57.895Z,3.92
2022-10-16T01:22:05.818Z,4.43
2022-10-16T01:27:20.575Z,3.97
2022-10-16T01:32:36.150Z,4.50
2022-10-16T01:37:49.193Z,4.45
2022-10-16T01:43:03.137Z,5.47
2022-10-16T01:48:14.601Z,4.45
2022-10-16T01:53:21.279Z,4.85
2022-10-16T01:58:38.198Z,5.40
2022-10-16T02:03:47.718Z,4.97
2022-10-16T02:08:55.149Z,4.43
2022-10-16T02:14:09.021Z,4.72
2022-10-16T02:19:17.797Z,4.80
2022-10-16T02:24:35.895Z,4.40
2022-10-16T02:29:55.067Z,4.88
2022-10-16T02:35:03.458Z,5.40
2022-10-16T02:40:13.039Z,4.97
2022-10-16T02:45:31.310Z,4.93
2022-10-16T02:50:39.687Z,4.45
2022-10-16T02:55:46.041Z,5.03
2022-10-16T03:00:54.526Z,5.05
2022-10-16T03:06:00.558Z,5.38
2022-10-16T03:11:07.191Z,5.25
2022-10-16T03:16:14.700Z,5.00
2022-10-16T03:21:20.615Z,5.38
2022-10-16T03:26:27.628Z,5.80
2022-10-16T03:31:34.987Z,5.65
2022-10-16T03:36:40.920Z,5.68
2022-10-16T03:41:47.860Z,6.20
2022-10-16T03:46:55.289Z,6.18
2022-10-16T03:52:01.230Z,6.53
2022-10-16T03:57:07.154Z,6.05
2022-10-16T04:02:14.509Z,5.20
2022-10-16T04:07:20.497Z,5.40
2022-10-16T04:12:26.444Z,4.97
2022-10-16T04:17:35.910Z,4.90
2022-10-16T04:22:42.521Z,5.55
2022-10-16T04:27:51.252Z,5.00
2022-10-16T04:33:02.787Z,4.80
2022-10-16T04:38:09.670Z,4.40
2022-10-16T04:43:17.074Z,5.03
2022-10-16T04:48:25.936Z,5.43
2022-10-16T04:53:32.213Z,5.50
2022-10-16T04:58:38.706Z,5.85
2022-10-16T05:03:47.947Z,5.70
2022-10-16T05:08:58.130Z,5.55
2022-10-16T05:14:07.347Z,5.63
2022-10-16T05:19:27.370Z,7.30
2022-10-16T05:24:36.807Z,6.03
2022-10-16T05:29:44.278Z,6.00
2022-10-16T05:34:53.121Z,7.22
2022-10-16T05:39:59.236Z,6.90
2022-10-16T05:45:06.861Z,6.53
2022-10-16T05:50:14.460Z,5.97
2022-10-16T05:55:20.627Z,7.13
2022-10-16T06:00:26.656Z,6.88
2022-10-16T06:05:34.548Z,6.65
2022-10-16T06:10:40.560Z,6.93
2022-10-16T06:15:47.674Z,7.55
2022-10-16T06:20:55.861Z,6.35
2022-10-16T06:26:09.600Z,6.32
2022-10-16T06:31:16.386Z,5.63
2022-10-16T06:36:23.938Z,6.75
2022-10-16T06:41:30.034Z,7.40
2022-10-16T06:46:37.714Z,6.47
2022-10-16T06:51:45.190Z,6.28
2022-10-16T06:56:51.333Z,6.55
2022-10-16T07:01:57.444Z,5.57
2022-10-16T07:07:07.021Z,6.00
2022-10-16T07:12:15.478Z,6.53
2022-10-16T07:17:21.613Z,6.10
2022-10-16T07:22:30.686Z,6.47
2022-10-16T07:32:43.990Z,6.50
2022-10-16T07:37:51.562Z,6.22
2022-10-16T07:42:57.819Z,6.50
2022-10-16T07:48:03.931Z,7.00
2022-10-16T07:53:12.243Z,5.90
2022-10-16T07:58:18.353Z,6.38
2022-10-16T08:03:24.903Z,7.70
2022-10-16T08:08:33.019Z,5.95
2022-10-16T08:13:39.762Z,6.17
2022-10-16T08:18:45.933Z,7.43
2022-10-16T08:23:57.924Z,5.88
2022-10-16T08:29:04.702Z,6.25
2022-10-16T08:34:10.725Z,5.50
2022-10-16T08:39:19.032Z,5.97
2022-10-16T08:45:04.088Z,5.93
2022-10-16T08:50:15.626Z,5.50
2022-10-16T08:55:41.214Z,5.70
2022-10-16T09:00:53.495Z,5.70
2022-10-16T09:06:23.510Z,6.13
2022-10-16T09:11:44.479Z,5.55
2022-10-16T09:16:59.433Z,5.57
2022-10-16T09:22:17.486Z,5.97
2022-10-16T09:27:25.860Z,5.43
2022-10-16T09:32:34.878Z,5.43
2022-10-16T09:37:41.466Z,5.53
2022-10-16T09:42:49.541Z,4.80
2022-10-16T09:47:57.850Z,4.83
2022-10-16T09:53:14.018Z,5.60
2022-10-16T09:58:26.592Z,5.80
2022-10-16T10:03:45.127Z,4.90
2022-10-16T10:09:07.598Z,5.18
2022-10-16T10:14:24.181Z,4.97
2022-10-16T10:19:32.971Z,5.65
2022-10-16T10:24:42.193Z,5.55
2022-10-16T10:30:02.180Z,6.60
2022-10-16T10:35:24.659Z,4.90
2022-10-16T10:40:42.839Z,5.13
2022-10-16T10:45:56.175Z,6.33
2022-10-16T10:51:11.704Z,5.50
2022-10-16T10:56:41.758Z,5.32
2022-10-16T11:02:01.259Z,5.60
2022-10-16T11:07:18.441Z,5.25
2022-10-16T11:12:29.087Z,5.45
2022-10-16T11:17:44.911Z,5.13
2022-10-16T11:22:57.946Z,4.38
2022-10-16T11:28:12.941Z,4.35
2022-10-16T11:33:33.984Z,4.68
2022-10-16T11:39:56.110Z,4.38
2022-10-16T11:45:16.892Z,4.60
2022-10-16T11:50:31.953Z,4.40
2022-10-16T11:55:44.774Z,4.90
2022-10-16T12:01:04.842Z,3.70
2022-10-16T12:06:34.378Z,4.13
2022-10-16T12:11:42.215Z,4.18
2022-10-16T12:16:58.462Z,4.27
2022-10-16T12:22:18.755Z,4.28
2022-10-16T12:27:31.017Z,4.10
2022-10-16T12:32:48.395Z,4.80
2022-10-16T12:38:27.956Z,4.95
2022-10-16T12:43:45.070Z,4.50
2022-10-16T12:49:08.400Z,4.95
2022-10-16T12:54:20.309Z,5.50
2022-10-16T12:59:41.103Z,4.40
2022-10-16T13:05:02.592Z,5.50
2022-10-16T13:10:26.215Z,5.07
2022-10-16T13:15:54.772Z,5.05
2022-10-16T13:21:19.938Z,5.38
2022-10-16T13:26:41.221Z,5.00
2022-10-16T13:31:48.099Z,6.18
2022-10-16T13:36:55.732Z,5.47
2022-10-16T13:42:09.411Z,5.72
2022-10-16T13:47:21.733Z,5.07
2022-10-16T13:52:28.413Z,6.00
2022-10-16T13:57:36.955Z,6.03
2022-10-16T14:02:44.516Z,6.55
2022-10-16T14:07:54.521Z,6.00
2022-10-16T14:13:06.260Z,5.40
2022-10-16T14:18:22.647Z,5.75
2022-10-16T14:23:34.835Z,6.22
2022-10-16T14:28:44.213Z,9.93
2022-10-16T14:33:52.100Z,10.43
2022-10-16T14:39:05.564Z,8.47
2022-10-16T14:44:16.852Z,6.85
2022-10-16T14:49:24.892Z,6.03
2022-10-16T14:54:31.333Z,5.28
2022-10-16T14:59:42.877Z,5.32
2022-10-16T15:04:49.321Z,4.50
2022-10-16T15:09:56.105Z,4.68
2022-10-16T15:15:04.123Z,4.43
2022-10-16T15:20:11.244Z,4.10
2022-10-16T15:25:43.846Z,5.05
2022-10-16T15:30:54.124Z,4.90
2022-10-16T15:36:01.381Z,4.63
2022-10-16T15:42:24.995Z,4.25
2022-10-16T15:47:33.703Z,4.45
2022-10-16T15:52:41.348Z,4.57
2022-10-16T15:57:49.562Z,5.03
2022-10-16T16:03:00.954Z,4.65
2022-10-16T16:08:08.501Z,5.30
2022-10-16T16:13:15.115Z,5.22
2022-10-16T16:18:24.467Z,5.47
2022-10-16T16:23:31.079Z,5.53
2022-10-16T16:28:37.839Z,5.90
2022-10-16T16:33:46.190Z,5.95
2022-10-16T16:38:53.148Z,5.13
2022-10-16T16:44:06.270Z,6.22
2022-10-16T16:49:16.598Z,6.32
2022-10-16T16:54:23.789Z,5.65
2022-10-16T16:59:31.477Z,5.82
2022-10-16T17:04:39.304Z,6.47
2022-10-16T17:09:45.970Z,6.82
2022-10-16T17:14:54.273Z,8.43
2022-10-16T17:20:02.800Z,5.63
2022-10-16T17:25:13.666Z,6.63
2022-10-16T17:30:20.852Z,11.38
2022-10-16T17:35:31.873Z,11.27
2022-10-16T17:40:44.433Z,15.45
2022-10-16T17:45:51.731Z,14.75
2022-10-16T17:51:02.298Z,14.75
2022-10-16T17:56:12.135Z,14.10
2022-10-16T18:01:23.345Z,13.40
2022-10-16T18:06:33.219Z,10.68
2022-10-16T18:11:40.941Z,9.55
2022-10-16T18:16:47.701Z,9.85
2022-10-16T18:21:57.301Z,7.18
2022-10-16T18:27:04.350Z,5.50
2022-10-16T18:32:11.433Z,7.03
2022-10-16T18:37:20.684Z,5.68
2022-10-16T18:42:28.567Z,4.43
2022-10-16T18:47:35.954Z,4.95
2022-10-16T18:52:50.681Z,4.80
2022-10-16T18:57:58.072Z,5.55
2022-10-16T19:03:05.195Z,4.80
2022-10-16T19:08:14.201Z,5.13
2022-10-16T19:13:23.772Z,5.38
2022-10-16T19:18:32.380Z,6.88
2022-10-16T19:23:45.664Z,9.10
2022-10-16T19:28:54.229Z,8.07
2022-10-16T19:34:04.548Z,9.23
2022-10-16T19:39:16.590Z,8.32
2022-10-16T19:44:24.106Z,7.68
2022-10-16T19:49:30.762Z,6.05
2022-10-16T19:54:39.408Z,6.43
2022-10-16T20:04:52.269Z,6.40
2022-10-16T20:10:00.373Z,5.07
2022-10-16T20:15:08.273Z,5.43
2022-10-16T20:20:14.935Z,4.97
2022-10-16T20:25:22.418Z,5.20
2022-10-16T20:30:28.635Z,5.35
2022-10-16T20:35:38.438Z,4.82
2022-10-16T20:40:49.377Z,3.70
2022-10-16T20:46:02.577Z,4.18
2022-10-16T20:51:14.911Z,3.10
2022-10-16T20:56:22.796Z,3.08
2022-10-16T21:01:31.374Z,3.55
2022-10-16T21:06:40.416Z,4.75
2022-10-16T21:11:48.328Z,4.72
2022-10-16T21:16:55.312Z,4.65
2022-10-16T21:22:01.433Z,5.00
2022-10-16T21:27:08.928Z,4.53
2022-10-16T21:32:15.353Z,5.30
2022-10-16T21:37:21.707Z,5.50
2022-10-16T21:42:30.129Z,4.93
2022-10-16T21:47:36.505Z,5.85
2022-10-16T21:52:42.622Z,6.32
2022-10-16T21:57:50.293Z,5.43
2022-10-16T22:02:58.882Z,7.03
2022-10-16T22:08:05.216Z,9.32
2022-10-16T22:13:12.822Z,9.52
2022-10-16T22:18:19.615Z,9.98
2022-10-16T22:23:26.033Z,7.68
2022-10-16T22:28:33.641Z,7.20
2022-10-16T22:33:40.328Z,8.35
2022-10-16T22:38:46.716Z,6.50
2022-10-16T22:43:54.603Z,7.22
2022-10-16T22:49:01.107Z,7.88
2022-10-16T22:54:07.259Z,6.28
2022-10-16T22:59:15.483Z,6.63
2022-10-16T23:04:21.584Z,5.07
2022-10-16T23:09:28.344Z,3.50
2022-10-16T23:14:35.948Z,3.50
2022-10-16T23:19:42.042Z,4.60
2022-10-16T23:24:48.379Z,5.97
2022-10-16T23:29:55.995Z,5.72
2022-10-16T23:35:02.490Z,4.10
2022-10-16T23:40:09.845Z,4.20
2022-10-16T23:45:19.120Z,3.92
2022-10-16T23:50:25.461Z,3.90
